Time;durP1;ratioP1;P1;durP2;ratioP2;P2;SDS_P1;SDS_P2;PMS_P1;PMS_P2;Temp;Humidity;BMP_temperature;BMP_pressure;BME280_temperature;BME280_humidity;BME280_pressure;Samples;Min_cycle;Max_cycle;Signal;HPM_P1;HPM_P2
2022/03/10 00:02:14;;;;;;;19.27;9.45;;;;;;;-1.76;83.35;99233.38;5006886;28;20026;-66
2022/03/10 00:04:39;;;;;;;18.98;9.65;;;;;;;-1.77;83.32;99234.19;5006842;28;20026;-66
2022/03/10 00:07:05;;;;;;;21.45;9.70;;;;;;;-1.79;82.98;99240.13;5006867;28;20034;-66
2022/03/10 00:09:32;;;;;;;15.70;7.95;;;;;;;-1.78;83.12;99235.03;5006871;28;20026;-66
2022/03/10 00:11:58;;;;;;;16.77;7.38;;;;;;;-1.73;82.55;99238.66;5007193;28;20026;-65
2022/03/10 00:14:24;;;;;;;16.08;8.02;;;;;;;-1.81;82.61;99240.06;5006491;28;20101;-65
2022/03/10 00:16:49;;;;;;;14.80;7.32;;;;;;;-1.97;83.34;99252.31;5007130;28;20030;-65
2022/03/10 00:19:16;;;;;;;15.77;8.68;;;;;;;-2.01;83.55;99251.31;5007386;28;20030;-65
2022/03/10 00:21:42;;;;;;;19.63;8.73;;;;;;;-1.94;83.43;99253.31;5007534;28;20221;-65
2022/03/10 00:24:08;;;;;;;25.27;8.88;;;;;;;-1.96;83.27;99244.66;5007088;28;20213;-66
2022/03/10 00:26:33;;;;;;;19.30;9.02;;;;;;;-1.97;83.39;99253.19;5006636;28;20049;-66
2022/03/10 00:28:58;;;;;;;25.55;10.07;;;;;;;-2.04;83.39;99248.63;5007003;28;20372;-66
2022/03/10 00:31:24;;;;;;;23.08;10.52;;;;;;;-2.17;83.17;99254.09;5006786;28;20041;-66
2022/03/10 00:33:49;;;;;;;20.98;9.68;;;;;;;-2.13;83.00;99250.81;5006681;28;20078;-66
2022/03/10 00:36:15;;;;;;;19.30;9.38;;;;;;;-2.10;83.09;99250.06;5006484;28;20030;-66
2022/03/10 00:38:41;;;;;;;19.92;10.32;;;;;;;-2.11;83.38;99253.47;5006501;28;20034;-66
2022/03/10 00:41:07;;;;;;;29.20;11.10;;;;;;;-2.13;82.99;99244.81;5006788;28;20049;-66
2022/03/10 00:43:32;;;;;;;23.75;10.80;;;;;;;-2.11;83.52;99254.34;5008218;28;20050;-66
2022/03/10 00:45:58;;;;;;;19.73;9.30;;;;;;;-2.12;83.79;99247.41;5010368;28;20261;-66
2022/03/10 00:48:23;;;;;;;25.23;9.80;;;;;;;-2.07;83.80;99253.66;5010212;28;20030;-66
2022/03/10 00:50:49;;;;;;;14.30;7.85;;;;;;;-2.17;83.89;99259.25;5010411;28;20034;-66
2022/03/10 00:53:14;;;;;;;17.17;7.80;;;;;;;-2.12;84.07;99257.72;4992850;28;20337;-65
2022/03/10 00:55:40;;;;;;;19.23;10.07;;;;;;;-2.11;83.75;99254.34;5009989;28;20081;-66
2022/03/10 00:58:05;;;;;;;22.17;9.50;;;;;;;-2.35;83.66;99243.06;5010019;28;20348;-66
2022/03/10 01:00:31;;;;;;;21.40;10.55;;;;;;;-2.30;84.95;99246.72;5009846;28;20030;-66
2022/03/10 01:02:57;;;;;;;28.75;10.07;;;;;;;-2.23;83.68;99248.72;5009893;28;20256;-66
2022/03/10 01:05:23;;;;;;;26.67;11.48;;;;;;;-2.30;83.33;99262.16;5010122;28;20249;-66
2022/03/10 01:07:48;;;;;;;19.10;9.05;;;;;;;-2.47;84.16;99247.69;5010211;28;20030;-66
2022/03/10 01:10:15;;;;;;;22.25;9.77;;;;;;;-2.56;84.34;99253.34;5009591;28;20055;-66
2022/03/10 01:12:42;;;;;;;19.05;7.93;;;;;;;-2.60;85.58;99250.59;5010175;28;20037;-66
2022/03/10 01:15:12;;;;;;;17.25;8.18;;;;;;;-2.57;85.85;99256.75;5009680;28;20049;-66
2022/03/10 01:17:38;;;;;;;14.73;8.30;;;;;;;-2.49;85.39;99264.81;5010116;28;20029;-66
2022/03/10 01:20:05;;;;;;;15.60;7.28;;;;;;;-2.53;84.64;99258.63;5009944;28;20221;-66
2022/03/10 01:22:30;;;;;;;16.15;7.30;;;;;;;-2.52;84.62;99262.09;5009843;28;20029;-66
2022/03/10 01:24:55;;;;;;;15.68;8.27;;;;;;;-2.51;84.78;99257.03;5009761;28;20018;-66
2022/03/10 01:27:21;;;;;;;20.45;7.70;;;;;;;-2.53;84.96;99252.63;5009491;28;20026;-66
2022/03/10 01:29:47;;;;;;;13.68;7.43;;;;;;;-2.50;84.74;99253.63;5009889;28;20026;-66
2022/03/10 01:32:12;;;;;;;16.52;6.50;;;;;;;-2.55;84.78;99259.41;5009842;28;20018;-66
2022/03/10 01:34:38;;;;;;;15.98;8.25;;;;;;;-2.53;85.39;99257.78;5009531;28;20033;-66
2022/03/10 01:37:03;;;;;;;16.75;7.75;;;;;;;-2.64;84.98;99259.03;5009417;28;20026;-66
2022/03/10 01:39:32;;;;;;;15.75;6.63;;;;;;;-2.60;84.41;99250.59;5009633;28;20094;-66
2022/03/10 01:41:58;;;;;;;17.58;7.70;;;;;;;-2.75;84.12;99250.84;5009519;28;20133;-66
2022/03/10 01:44:24;;;;;;;16.45;5.88;;;;;;;-2.90;84.51;99254.47;5009469;28;20022;-66
2022/03/10 01:46:49;;;;;;;23.27;8.88;;;;;;;-2.83;85.75;99264.22;5009407;28;20345;-66
2022/03/10 01:49:15;;;;;;;16.95;9.20;;;;;;;-2.84;85.20;99257.31;5009702;28;20375;-66
2022/03/10 01:51:41;;;;;;;21.63;9.90;;;;;;;-2.71;84.65;99260.47;5009390;28;20026;-66
2022/03/10 01:54:07;;;;;;;14.15;6.88;;;;;;;-2.81;84.64;99254.88;5008906;28;20272;-66
2022/03/10 01:56:33;;;;;;;20.05;9.07;;;;;;;-2.82;85.13;99258.22;5009222;28;20081;-66
2022/03/10 01:59:01;;;;;;;15.40;6.30;;;;;;;-2.74;85.15;99255.19;5009323;28;20022;-66
2022/03/10 02:01:27;;;;;;;16.42;7.43;;;;;;;-2.82;85.54;99255.66;5009270;28;20368;-66
2022/03/10 02:03:52;;;;;;;12.57;7.20;;;;;;;-2.87;85.05;99246.88;5009617;28;20018;-66
2022/03/10 02:06:18;;;;;;;17.25;8.90;;;;;;;-2.79;84.94;99254.09;5009286;28;20298;-66
2022/03/10 02:11:28;;;;;;;13.10;6.47;;;;;;;-2.92;84.46;99240.63;5009241;28;20186;-66
2022/03/10 02:13:54;;;;;;;15.02;7.22;;;;;;;-2.93;84.86;99234.63;5008698;28;20101;-66
2022/03/10 02:19:03;;;;;;;13.52;6.28;;;;;;;-3.08;84.19;99228.81;5009090;28;20226;-66
2022/03/10 02:21:29;;;;;;;16.70;9.07;;;;;;;-3.12;84.90;99242.38;5009033;28;20027;-65
2022/03/10 02:23:55;;;;;;;11.98;6.90;;;;;;;-3.09;85.34;99247.66;5008635;28;20228;-66
2022/03/10 02:26:20;;;;;;;15.18;9.60;;;;;;;-3.07;85.08;99240.00;5008711;28;20046;-66
2022/03/10 02:28:47;;;;;;;10.07;6.22;;;;;;;-3.17;85.13;99241.28;5008685;28;20085;-66
2022/03/10 02:31:12;;;;;;;9.93;6.38;;;;;;;-3.06;84.92;99241.75;5008879;28;20030;-66
2022/03/10 02:33:38;;;;;;;12.85;6.60;;;;;;;-3.18;84.92;99230.91;5008466;28;20064;-66
2022/03/10 02:36:07;;;;;;;21.58;7.80;;;;;;;-3.20;85.53;99237.72;5008924;28;20364;-66
2022/03/10 02:38:34;;;;;;;16.27;8.43;;;;;;;-3.19;85.95;99234.31;5008501;28;20026;-66
2022/03/10 02:40:59;;;;;;;18.25;8.65;;;;;;;-3.25;85.40;99234.03;5008289;28;20026;-66
2022/03/10 02:43:25;;;;;;;12.63;6.60;;;;;;;-3.21;86.03;99241.97;5008478;28;20033;-66
2022/03/10 02:45:51;;;;;;;16.60;8.43;;;;;;;-3.30;85.20;99235.53;5008313;28;20023;-66
2022/03/10 02:48:17;;;;;;;16.40;6.70;;;;;;;-3.35;85.59;99234.47;5008601;28;20297;-66
2022/03/10 02:50:44;;;;;;;16.08;8.35;;;;;;;-3.29;86.27;99237.31;5008339;28;20023;-66
2022/03/10 02:53:10;;;;;;;17.90;8.63;;;;;;;-3.20;86.04;99248.00;5008449;28;20329;-66
2022/03/10 02:55:36;;;;;;;16.23;8.73;;;;;;;-3.12;85.96;99250.09;5008386;28;20029;-66
2022/03/10 02:58:02;;;;;;;11.85;7.07;;;;;;;-3.38;85.29;99236.91;5008300;28;20053;-66
2022/03/10 03:00:27;;;;;;;19.40;8.52;;;;;;;-3.40;85.83;99243.66;5008064;28;20030;-65
2022/03/10 03:02:53;;;;;;;14.10;6.95;;;;;;;-3.32;86.25;99244.88;5007860;28;20049;-65
2022/03/10 03:05:19;;;;;;;20.05;9.85;;;;;;;-3.28;86.18;99244.22;5008226;28;20022;-65
2022/03/10 03:07:45;;;;;;;20.25;8.27;;;;;;;-3.21;86.07;99241.06;5008152;28;20081;-65
2022/03/10 03:10:12;;;;;;;18.90;7.78;;;;;;;-3.32;85.90;99242.31;5008111;28;20034;-65
2022/03/10 03:12:46;;;;;;;11.68;6.35;;;;;;;-3.27;85.87;99252.00;5008057;28;20026;-65
2022/03/10 03:15:11;;;;;;;20.40;7.65;;;;;;;-3.34;85.55;99243.94;5007784;28;20097;-65
2022/03/10 03:17:36;;;;;;;12.77;6.45;;;;;;;-3.30;86.17;99256.13;5008233;28;20026;-65
2022/03/10 03:20:04;;;;;;;19.45;8.32;;;;;;;-3.40;86.30;99264.25;5008257;28;20217;-65
2022/03/10 03:22:30;;;;;;;17.75;8.52;;;;;;;-3.47;86.25;99251.91;5008237;28;20022;-65
2022/03/10 03:24:56;;;;;;;11.85;7.72;;;;;;;-3.48;86.31;99250.16;5008090;28;20213;-65
2022/03/10 03:27:22;;;;;;;13.13;7.30;;;;;;;-3.40;86.74;99259.97;5008063;28;20030;-65
2022/03/10 03:29:47;;;;;;;11.52;6.55;;;;;;;-3.42;86.69;99255.59;5008346;28;20124;-65
2022/03/10 03:32:13;;;;;;;15.50;7.57;;;;;;;-3.39;86.40;99260.88;5007824;28;20086;-65
2022/03/10 03:34:39;;;;;;;14.82;7.25;;;;;;;-3.51;85.71;99247.47;5007789;28;20030;-66
2022/03/10 03:37:04;;;;;;;16.92;7.10;;;;;;;-3.44;86.05;99258.09;5008236;28;20030;-66
2022/03/10 03:39:30;;;;;;;13.88;7.47;;;;;;;-3.35;85.58;99255.91;5007792;28;20034;-66
2022/03/10 03:41:55;;;;;;;13.75;7.60;;;;;;;-3.36;85.03;99261.03;5008136;28;20033;-66
2022/03/10 03:44:21;;;;;;;20.25;7.95;;;;;;;-3.55;85.56;99259.28;5008083;28;20041;-66
2022/03/10 03:46:46;;;;;;;9.13;5.90;;;;;;;-3.62;85.71;99253.78;5007597;28;20217;-66
2022/03/10 03:49:12;;;;;;;14.05;8.50;;;;;;;-3.61;85.72;99258.16;5007729;28;20053;-66
2022/03/10 03:51:38;;;;;;;17.65;8.35;;;;;;;-3.82;86.31;99252.91;5007744;28;20229;-66
2022/03/10 03:54:05;;;;;;;15.68;7.90;;;;;;;-3.74;87.94;99263.56;5007567;28;20031;-67
2022/03/10 03:56:31;;;;;;;11.50;6.28;;;;;;;-3.71;88.44;99266.22;5008100;28;20053;-66
2022/03/10 03:58:56;;;;;;;11.05;5.45;;;;;;;-3.72;88.67;99255.09;5007715;28;20334;-66
2022/03/10 04:01:23;;;;;;;10.88;6.68;;;;;;;-3.67;89.05;99263.88;5007767;28;20037;-66
2022/03/10 04:03:48;;;;;;;13.35;6.00;;;;;;;-3.65;88.40;99251.97;5007667;28;20187;-66
2022/03/10 04:06:14;;;;;;;13.68;5.28;;;;;;;-3.76;86.95;99254.88;5007746;28;20033;-66
2022/03/10 04:08:39;;;;;;;13.52;8.38;;;;;;;-3.76;87.04;99247.16;5007344;28;20073;-66
2022/03/10 04:11:05;;;;;;;10.45;6.55;;;;;;;-3.76;87.37;99254.88;5007711;28;20030;-66
2022/03/10 04:13:30;;;;;;;23.23;7.45;;;;;;;-3.76;87.81;99252.28;5007423;28;20029;-66
2022/03/10 04:15:57;;;;;;;12.18;7.45;;;;;;;-3.70;87.36;99255.16;5007542;28;20118;-66
2022/03/10 04:18:22;;;;;;;14.50;7.07;;;;;;;-3.69;87.38;99262.94;5008743;28;20038;-66
2022/03/10 04:20:48;;;;;;;14.55;6.75;;;;;;;-3.76;87.39;99262.59;5011588;28;20029;-66
2022/03/10 04:23:14;;;;;;;10.90;4.93;;;;;;;-3.78;87.23;99264.19;5011587;28;20022;-65
2022/03/10 04:25:41;;;;;;;16.20;6.68;;;;;;;-3.69;86.47;99265.50;5011561;28;20022;-66
2022/03/10 04:28:06;;;;;;;22.08;9.02;;;;;;;-3.85;85.88;99262.16;5011077;28;20024;-66
2022/03/10 04:30:33;;;;;;;9.38;5.10;;;;;;;-3.98;86.07;99259.81;5011553;28;20037;-66
2022/03/10 04:32:58;;;;;;;12.40;7.00;;;;;;;-3.92;86.69;99265.25;5010881;28;20097;-66
2022/03/10 04:35:24;;;;;;;12.30;5.55;;;;;;;-3.77;86.93;99265.97;5010946;28;20254;-66
2022/03/10 04:37:52;;;;;;;9.65;4.95;;;;;;;-3.85;87.01;99267.28;5010863;28;20094;-66
2022/03/10 04:40:19;;;;;;;16.25;7.35;;;;;;;-3.85;87.18;99267.28;5010906;28;20057;-65
2022/03/10 04:42:45;;;;;;;17.00;7.50;;;;;;;-3.88;87.10;99262.00;5010968;28;20098;-66
2022/03/10 04:45:11;;;;;;;11.43;6.20;;;;;;;-3.87;86.91;99266.34;5010916;28;20026;-66
2022/03/10 04:47:37;;;;;;;12.75;6.22;;;;;;;-3.88;86.67;99267.16;5011174;28;20025;-66
2022/03/10 04:50:05;;;;;;;11.13;5.13;;;;;;;-3.84;86.88;99269.03;5011147;28;20022;-66
2022/03/10 04:52:31;;;;;;;21.10;6.43;;;;;;;-3.83;86.46;99260.53;5011334;28;20253;-66
2022/03/10 04:54:56;;;;;;;9.90;6.57;;;;;;;-3.95;86.86;99254.81;5011179;28;20093;-66
2022/03/10 04:57:22;;;;;;;13.45;8.57;;;;;;;-4.00;86.74;99261.44;5010994;28;20217;-66
2022/03/10 04:59:48;;;;;;;12.48;6.97;;;;;;;-3.99;86.78;99255.50;5010492;28;20022;-66
2022/03/10 05:02:13;;;;;;;9.27;5.05;;;;;;;-3.90;87.02;99263.66;5010380;28;20309;-66
2022/03/10 05:04:38;;;;;;;20.80;8.10;;;;;;;-4.03;87.14;99256.16;5010571;28;20026;-66
2022/03/10 05:07:04;;;;;;;15.27;7.43;;;;;;;-3.86;86.80;99268.13;5009650;28;20029;-66
2022/03/10 05:09:30;;;;;;;13.15;6.00;;;;;;;-3.94;86.10;99256.56;5010437;28;20050;-66
2022/03/10 05:11:56;;;;;;;10.82;6.15;;;;;;;-3.91;86.73;99267.00;5009369;28;20029;-66
2022/03/10 05:14:21;;;;;;;10.93;6.68;;;;;;;-4.08;85.90;99257.63;5008251;28;20037;-66
2022/03/10 05:16:47;;;;;;;15.70;7.45;;;;;;;-4.05;87.87;99258.63;5009208;28;20036;-66
2022/03/10 05:19:13;;;;;;;16.65;7.78;;;;;;;-4.07;88.01;99257.72;5009297;28;20026;-66
2022/03/10 05:21:39;;;;;;;24.30;7.32;;;;;;;-4.03;88.40;99269.00;5009124;28;20025;-66
2022/03/10 05:24:05;;;;;;;16.58;8.50;;;;;;;-3.95;87.48;99265.09;5008909;28;20022;-66
2022/03/10 05:26:30;;;;;;;11.80;6.28;;;;;;;-3.99;86.49;99266.66;5008720;28;20026;-66
2022/03/10 05:28:56;;;;;;;12.05;6.13;;;;;;;-4.06;86.91;99267.16;5008702;28;20045;-66
2022/03/10 05:31:21;;;;;;;17.65;7.65;;;;;;;-4.05;87.18;99263.78;5007906;28;20026;-66
2022/03/10 05:33:47;;;;;;;25.77;9.07;;;;;;;-3.97;87.47;99259.00;5008752;28;20018;-66
2022/03/10 05:36:12;;;;;;;15.73;7.82;;;;;;;-4.00;87.02;99256.28;5008639;28;20094;-66
2022/03/10 05:38:38;;;;;;;15.15;8.25;;;;;;;-3.99;87.50;99269.22;5008289;28;20049;-66
2022/03/10 05:41:05;;;;;;;9.98;6.07;;;;;;;-3.90;87.56;99268.78;5007656;28;20026;-66
2022/03/10 05:43:34;;;;;;;10.15;5.72;;;;;;;-3.87;87.51;99271.47;5008235;28;20022;-66
2022/03/10 05:45:59;;;;;;;12.80;6.32;;;;;;;-3.87;86.88;99274.03;5008258;28;20014;-66
2022/03/10 05:48:25;;;;;;;19.90;7.45;;;;;;;-3.96;86.32;99263.34;5008104;28;20069;-66
2022/03/10 05:50:50;;;;;;;10.60;5.75;;;;;;;-4.05;86.81;99278.34;5008089;28;20019;-66
2022/03/10 05:53:16;;;;;;;16.88;7.95;;;;;;;-4.00;86.48;99277.75;5008342;28;20037;-66
2022/03/10 05:55:41;;;;;;;11.32;5.95;;;;;;;-3.97;86.67;99277.00;5008146;28;20022;-66
2022/03/10 05:58:07;;;;;;;15.05;6.72;;;;;;;-4.12;85.91;99281.44;5008042;28;20033;-66
2022/03/10 06:00:32;;;;;;;10.60;6.95;;;;;;;-4.11;87.60;99278.06;5007769;28;20093;-66
2022/03/10 06:02:58;;;;;;;11.20;6.07;;;;;;;-4.11;87.41;99283.19;5007909;28;20064;-66
2022/03/10 06:05:23;;;;;;;13.60;7.45;;;;;;;-4.01;87.17;99286.28;5008017;28;20061;-66
2022/03/10 06:07:49;;;;;;;10.60;6.00;;;;;;;-3.99;87.26;99286.34;5008221;28;20018;-66
2022/03/10 06:10:15;;;;;;;13.50;7.72;;;;;;;-3.95;87.14;99285.69;5007735;28;20218;-66
2022/03/10 06:12:41;;;;;;;14.90;7.15;;;;;;;-3.93;87.14;99289.22;5008273;28;20026;-66
2022/03/10 06:15:08;;;;;;;13.07;6.03;;;;;;;-3.85;86.91;99290.44;5007909;28;20376;-66
2022/03/10 06:17:34;;;;;;;15.95;6.32;;;;;;;-3.82;86.05;99295.72;5007804;28;20026;-66
2022/03/10 06:20:00;;;;;;;12.50;5.90;;;;;;;-3.88;86.54;99295.44;5007811;28;20253;-66
2022/03/10 06:22:30;;;;;;;13.38;6.40;;;;;;;-3.60;86.87;99307.09;5008210;28;20026;-66
2022/03/10 06:24:56;;;;;;;15.90;7.30;;;;;;;-3.47;86.22;99308.53;5007935;28;20065;-66
2022/03/10 06:27:22;;;;;;;14.98;8.25;;;;;;;-3.23;85.83;99319.94;5007608;28;20049;-66
2022/03/10 06:29:48;;;;;;;14.18;7.28;;;;;;;-2.98;85.47;99322.78;5007609;28;20061;-66
2022/03/10 06:32:16;;;;;;;11.90;6.55;;;;;;;-2.80;84.68;99318.44;5007291;28;20030;-66
2022/03/10 06:34:41;;;;;;;13.23;6.90;;;;;;;-2.65;83.44;99329.41;5007005;28;20026;-66
2022/03/10 06:37:07;;;;;;;12.55;6.30;;;;;;;-2.23;82.73;99336.38;5006950;28;20026;-66
2022/03/10 06:39:33;;;;;;;17.17;7.03;;;;;;;-2.02;81.25;99332.09;5007014;28;20049;-66
2022/03/10 06:41:59;;;;;;;14.00;7.03;;;;;;;-1.54;80.41;99326.28;5006714;28;20316;-66
2022/03/10 06:44:25;;;;;;;18.83;8.05;;;;;;;-1.10;79.24;99344.34;5006941;28;20049;-66
2022/03/10 06:46:51;;;;;;;15.80;7.03;;;;;;;-0.71;77.75;99350.97;5007400;28;20061;-66
2022/03/10 06:49:16;;;;;;;17.15;7.68;;;;;;;-0.31;76.61;99359.28;5007792;28;20228;-66
2022/03/10 06:51:42;;;;;;;12.05;6.63;;;;;;;-0.04;75.31;99349.00;5007348;28;20022;-66
2022/03/10 06:54:08;;;;;;;13.63;7.18;;;;;;;0.27;74.41;99341.41;5007557;28;20030;-66
2022/03/10 06:56:34;;;;;;;18.33;7.72;;;;;;;0.30;73.42;99340.63;5007919;28;20022;-66
2022/03/10 06:58:59;;;;;;;18.38;9.00;;;;;;;0.41;72.65;99341.84;5008214;28;20344;-66
2022/03/10 07:01:25;;;;;;;15.32;9.35;;;;;;;0.87;71.54;99353.66;5007942;28;20164;-66
2022/03/10 07:03:51;;;;;;;16.27;7.38;;;;;;;0.86;71.45;99351.03;5008235;28;20021;-66
2022/03/10 07:06:17;;;;;;;16.00;8.25;;;;;;;1.39;70.63;99359.50;5007494;28;20022;-66
2022/03/10 07:08:42;;;;;;;20.63;8.98;;;;;;;2.19;68.33;99361.66;5007979;28;20028;-66
2022/03/10 07:11:08;;;;;;;18.15;9.05;;;;;;;2.57;66.85;99366.06;5007763;28;20022;-66
2022/03/10 07:13:35;;;;;;;19.45;9.65;;;;;;;3.00;66.00;99363.59;5007512;28;20050;-66
2022/03/10 07:16:01;;;;;;;19.13;9.32;;;;;;;3.35;65.82;99361.75;5007172;28;20034;-66
2022/03/10 07:18:26;;;;;;;17.30;9.23;;;;;;;3.31;64.03;99355.59;5007324;28;20029;-67
2022/03/10 07:20:52;;;;;;;27.67;11.15;;;;;;;3.78;63.81;99364.34;5007444;28;20050;-67
2022/03/10 07:23:17;;;;;;;37.63;14.93;;;;;;;3.47;63.42;99341.16;5006755;28;20030;-67
2022/03/10 07:25:43;;;;;;;23.70;12.40;;;;;;;4.10;63.00;99358.88;5006888;28;20022;-67
2022/03/10 07:28:09;;;;;;;26.95;13.55;;;;;;;4.21;61.44;99336.47;5006910;28;20022;-66
2022/03/10 07:30:35;;;;;;;26.08;11.77;;;;;;;4.18;62.34;99336.41;5007257;28;20018;-67
2022/03/10 07:33:00;;;;;;;27.60;12.43;;;;;;;4.92;62.25;99363.66;5006988;28;20388;-66
2022/03/10 07:35:26;;;;;;;38.03;14.38;;;;;;;5.43;60.07;99358.25;5006928;28;20026;-66
2022/03/10 07:37:53;;;;;;;28.95;12.43;;;;;;;6.05;58.80;99359.88;5006967;28;20029;-67
2022/03/10 07:40:20;;;;;;;27.38;12.85;;;;;;;6.31;58.11;99358.38;5006776;28;20086;-67
2022/03/10 07:42:46;;;;;;;24.15;12.02;;;;;;;6.44;58.72;99360.25;5006709;28;20037;-67
2022/03/10 07:45:12;;;;;;;27.65;12.93;;;;;;;7.02;57.38;99361.56;5006630;28;20041;-67
2022/03/10 07:47:37;;;;;;;29.20;14.10;;;;;;;6.71;56.68;99344.78;5006344;28;20026;-67
2022/03/10 07:50:04;;;;;;;27.73;13.75;;;;;;;7.47;56.09;99357.41;5006321;28;20253;-67
2022/03/10 07:52:30;;;;;;;27.63;13.52;;;;;;;7.76;55.35;99347.94;5006312;28;20036;-67
2022/03/10 07:54:55;;;;;;;26.13;14.05;;;;;;;8.22;54.79;99341.94;5010424;28;20022;-66
2022/03/10 07:57:21;;;;;;;31.88;15.35;;;;;;;8.49;54.18;99347.19;5010194;28;20022;-67
2022/03/10 07:59:47;;;;;;;27.02;14.32;;;;;;;7.85;55.72;99326.97;5010330;28;20030;-67
2022/03/10 08:02:13;;;;;;;29.10;15.52;;;;;;;8.42;54.77;99350.69;5009746;28;20029;-67
2022/03/10 08:04:39;;;;;;;29.85;14.57;;;;;;;9.09;53.58;99334.88;5009734;28;20304;-66
2022/03/10 08:07:05;;;;;;;33.63;17.23;;;;;;;8.90;52.58;99305.19;5009220;28;20035;-66
2022/03/10 08:09:31;;;;;;;32.72;17.15;;;;;;;9.68;52.36;99332.94;5009017;28;20050;-66
2022/03/10 08:11:56;;;;;;;30.70;16.58;;;;;;;10.29;50.72;99336.97;5008787;28;20068;-66
2022/03/10 08:14:22;;;;;;;37.17;17.88;;;;;;;10.71;50.23;99329.63;5008336;28;20062;-66
2022/03/10 08:16:47;;;;;;;39.45;18.48;;;;;;;10.84;49.40;99319.81;5008580;28;20022;-66
2022/03/10 08:19:13;;;;;;;39.35;18.45;;;;;;;11.32;49.01;99323.72;5008795;28;20022;-67
2022/03/10 08:21:38;;;;;;;43.67;19.70;;;;;;;10.81;50.08;99304.06;5008586;28;20022;-67
2022/03/10 08:24:05;;;;;;;45.35;20.27;;;;;;;10.82;51.02;99303.16;5008362;28;20045;-67
2022/03/10 08:26:30;;;;;;;47.05;19.60;;;;;;;11.40;50.20;99312.22;5008863;28;20049;-67
2022/03/10 08:28:56;;;;;;;53.90;21.33;;;;;;;11.58;49.28;99290.88;5008993;28;20348;-67
2022/03/10 08:31:21;;;;;;;42.90;20.42;;;;;;;12.09;48.53;99311.28;5008947;28;20037;-67
2022/03/10 08:33:47;;;;;;;49.65;21.75;;;;;;;12.43;47.60;99301.97;5009254;28;20034;-67
2022/03/10 08:36:13;;;;;;;43.25;19.35;;;;;;;13.22;46.62;99300.59;5009856;28;20018;-67
2022/03/10 08:38:39;;;;;;;48.17;20.42;;;;;;;13.65;46.38;99298.81;5009619;28;20194;-67
2022/03/10 08:41:05;;;;;;;45.47;20.77;;;;;;;13.95;44.87;99291.09;5009910;28;20022;-66
2022/03/10 08:43:32;;;;;;;48.67;22.10;;;;;;;13.79;44.00;99252.63;5010392;28;20368;-67
2022/03/10 08:45:58;;;;;;;51.20;24.13;;;;;;;14.19;43.89;99260.53;5009846;28;20042;-67
2022/03/10 08:48:24;;;;;;;59.30;26.67;;;;;;;14.27;43.53;99248.03;5010025;28;20018;-67
2022/03/10 08:50:50;;;;;;;64.75;26.90;;;;;;;14.29;43.70;99248.84;5010154;28;20026;-67
2022/03/10 08:53:16;;;;;;;52.22;22.48;;;;;;;14.63;43.65;99258.56;5010067;28;20094;-67
2022/03/10 08:55:41;;;;;;;58.90;23.60;;;;;;;15.12;42.02;99258.13;5010108;28;20377;-67
2022/03/10 08:58:07;;;;;;;65.45;23.65;;;;;;;15.00;41.97;99250.53;5009995;28;20329;-67
2022/03/10 09:00:33;;;;;;;43.28;21.10;;;;;;;15.57;41.01;99248.91;5009924;28;20023;-67
2022/03/10 09:02:59;;;;;;;47.00;20.65;;;;;;;15.90;40.11;99250.53;5010205;28;20029;-67
2022/03/10 09:05:25;;;;;;;49.97;21.15;;;;;;;15.95;39.92;99239.78;5009710;28;20057;-67
2022/03/10 09:07:50;;;;;;;39.67;19.95;;;;;;;16.17;39.69;99241.69;5009794;28;20026;-67
2022/03/10 09:10:15;;;;;;;41.60;19.27;;;;;;;16.07;40.39;99234.09;5009755;28;20344;-67
2022/03/10 09:12:41;;;;;;;42.78;19.65;;;;;;;15.59;40.92;99255.00;5009980;28;20065;-67
2022/03/10 09:15:08;;;;;;;38.60;19.60;;;;;;;16.40;39.52;99244.47;5009484;28;20045;-67
2022/03/10 09:17:33;;;;;;;35.45;17.48;;;;;;;17.17;38.79;99234.69;5010075;28;20049;-66
2022/03/10 09:19:59;;;;;;;39.03;17.23;;;;;;;17.14;37.72;99224.16;5009786;28;20026;-66
2022/03/10 09:22:25;;;;;;;33.33;16.98;;;;;;;17.03;36.74;99215.69;5009604;28;20089;-66
2022/03/10 09:24:52;;;;;;;40.45;17.80;;;;;;;18.10;27.57;99234.72;5009507;28;20022;-66
2022/03/10 09:27:18;;;;;;;31.85;16.85;;;;;;;17.55;29.66;99224.44;5009887;28;20094;-66
2022/03/10 09:29:43;;;;;;;32.88;16.67;;;;;;;17.82;34.17;99223.41;5009720;28;20022;-66
2022/03/10 09:32:09;;;;;;;36.17;16.77;;;;;;;17.99;33.08;99220.94;5009691;28;20033;-66
2022/03/10 09:34:35;;;;;;;35.10;16.20;;;;;;;18.12;31.71;99216.84;5009650;28;20029;-66
2022/03/10 09:37:00;;;;;;;32.92;16.58;;;;;;;17.78;31.78;99208.47;5009372;28;20041;-66
2022/03/10 09:39:26;;;;;;;26.95;14.43;;;;;;;17.90;31.92;99229.28;5009258;28;20038;-66
2022/03/10 09:41:55;;;;;;;25.90;14.30;;;;;;;17.37;31.63;99201.19;5009187;28;20046;-66
2022/03/10 09:44:20;;;;;;;31.27;15.13;;;;;;;17.33;30.94;99197.75;5009618;28;20045;-66
2022/03/10 09:46:49;;;;;;;31.73;14.80;;;;;;;18.01;30.55;99213.75;5009465;28;20341;-66
2022/03/10 09:49:15;;;;;;;34.50;15.95;;;;;;;18.10;29.99;99213.41;5009240;28;20018;-66
2022/03/10 09:51:40;;;;;;;27.83;14.55;;;;;;;18.24;27.99;99195.91;5009037;28;20073;-66
2022/03/10 09:54:05;;;;;;;33.65;16.65;;;;;;;18.05;17.00;99186.94;5008955;28;20022;-66
2022/03/10 09:56:31;;;;;;;31.25;15.63;;;;;;;17.88;30.72;99181.41;5008672;28;20372;-66
2022/03/10 09:58:57;;;;;;;29.05;14.75;;;;;;;18.00;30.82;99186.25;5008936;28;20026;-66
2022/03/10 10:01:22;;;;;;;29.77;14.75;;;;;;;18.01;30.37;99181.78;5008883;28;20027;-66
2022/03/10 10:03:48;;;;;;;27.13;15.10;;;;;;;18.52;29.04;99199.22;5008847;28;20033;-66
2022/03/10 10:06:13;;;;;;;26.65;13.63;;;;;;;18.74;29.55;99201.81;5009031;28;20326;-66
2022/03/10 10:08:41;;;;;;;27.77;14.30;;;;;;;18.78;30.00;99198.06;5008596;28;20029;-66
2022/03/10 10:11:07;;;;;;;27.10;15.10;;;;;;;18.26;29.71;99172.72;5008674;28;20026;-66
2022/03/10 10:13:38;;;;;;;26.45;13.98;;;;;;;18.57;28.76;99188.34;5008767;28;20030;-66
2022/03/10 10:16:13;;;;;;;31.23;15.07;;;;;;;18.69;29.25;99193.13;5007898;28;20095;-66
2022/03/10 10:18:39;;;;;;;31.30;14.45;;;;;;;18.16;29.36;99170.53;5008846;28;20081;-66
2022/03/10 10:21:06;;;;;;;28.88;13.85;;;;;;;18.07;29.22;99163.75;5008513;28;20333;-66
2022/03/10 10:23:34;;;;;;;27.77;14.63;;;;;;;18.43;27.61;99174.72;5008651;28;20026;-66
2022/03/10 10:26:00;;;;;;;26.67;12.93;;;;;;;18.47;29.46;99181.66;5008827;28;20409;-66
2022/03/10 10:28:35;;;;;;;26.15;14.02;;;;;;;18.34;29.07;99185.72;5008514;28;20038;-66
2022/03/10 10:31:12;;;;;;;29.25;14.75;;;;;;;18.85;30.11;99186.19;5008607;28;20385;-66
2022/03/10 10:33:40;;;;;;;29.48;14.25;;;;;;;18.53;28.02;99170.72;5008178;28;20030;-66
2022/03/10 10:36:26;;;;;;;25.67;13.85;;;;;;;18.54;27.69;99168.00;5008624;28;20030;-66
2022/03/10 10:38:56;;;;;;;26.25;12.88;;;;;;;18.17;28.54;99156.25;5008649;28;20030;-66
2022/03/10 10:41:21;;;;;;;27.42;13.65;;;;;;;18.30;28.20;99158.34;5008407;28;20037;-66
2022/03/10 10:43:49;;;;;;;29.15;15.38;;;;;;;18.60;29.76;99173.06;5008421;28;20077;-66
2022/03/10 10:46:35;;;;;;;28.25;14.68;;;;;;;18.35;26.98;99151.00;5007926;28;20093;-66
2022/03/10 10:49:03;;;;;;;30.15;14.73;;;;;;;18.40;28.88;99156.19;5008082;28;20224;-66
2022/03/10 10:51:36;;;;;;;29.30;14.88;;;;;;;17.66;28.40;99126.41;5008133;28;20218;-66
2022/03/10 10:54:05;;;;;;;27.23;14.45;;;;;;;17.85;28.46;99146.06;5007578;28;20030;-66
2022/03/10 10:56:30;;;;;;;26.13;14.90;;;;;;;17.75;28.69;99152.69;5007773;28;20033;-66
2022/03/10 10:58:57;;;;;;;27.92;14.02;;;;;;;18.04;27.99;99144.38;5007380;28;20033;-66
2022/03/10 11:01:40;;;;;;;29.00;15.38;;;;;;;17.94;27.53;99143.03;5007030;28;20030;-66
2022/03/10 11:04:06;;;;;;;25.10;12.50;;;;;;;17.83;27.53;99129.25;5006241;28;20022;-66
2022/03/10 11:06:34;;;;;;;30.30;13.65;;;;;;;18.10;27.28;99141.47;5006664;28;20258;-66
2022/03/10 11:08:59;;;;;;;27.52;13.40;;;;;;;18.24;26.64;99141.75;5006745;28;20026;-66
2022/03/10 11:11:24;;;;;;;24.48;12.38;;;;;;;18.45;26.38;99140.88;5006908;28;20032;-66
2022/03/10 11:13:50;;;;;;;27.92;13.77;;;;;;;17.92;27.16;99135.09;5006538;28;20034;-66
2022/03/10 11:16:17;;;;;;;27.20;14.20;;;;;;;17.84;26.75;99115.03;5006030;28;20022;-66
2022/03/10 11:18:48;;;;;;;29.58;13.20;;;;;;;18.18;27.68;99120.69;5006011;28;20026;-66
2022/03/10 11:21:26;;;;;;;28.33;13.23;;;;;;;17.74;25.97;99108.31;5005852;28;20030;-66
2022/03/10 11:24:02;;;;;;;25.70;12.57;;;;;;;17.71;27.33;99108.44;5005692;28;20081;-66
2022/03/10 11:26:37;;;;;;;30.38;13.05;;;;;;;17.62;27.02;99101.69;5005670;28;20053;-66